Time;durP1;ratioP1;P1;durP2;ratioP2;P2;SDS_P1;SDS_P2;PMS_P1;PMS_P2;Temp;Humidity;BMP_temperature;BMP_pressure;BME280_temperature;BME280_humidity;BME280_pressure;Samples;Min_cycle;Max_cycle;Signal;HPM_P1;HPM_P2
2022/08/25 00:01:07;;;;;;;0.40;0.40;;;21.70;99.90;;;;;;4921644;29;20144;-84
2022/08/25 00:03:33;;;;;;;0.47;0.47;;;22.00;99.90;;;;;;4913265;29;20127;-84
2022/08/25 00:05:59;;;;;;;0.45;0.45;;;22.00;99.90;;;;;;4917837;29;20188;-83
2022/08/25 00:08:24;;;;;;;0.30;0.30;;;21.90;99.90;;;;;;4908270;29;20134;-84
2022/08/25 00:10:50;;;;;;;0.70;0.70;;;21.80;99.90;;;;;;4889389;29;20192;-84
2022/08/25 00:13:16;;;;;;;0.50;0.50;;;21.80;99.90;;;;;;4908449;29;20043;-83
2022/08/25 00:15:41;;;;;;;0.50;0.50;;;21.70;99.90;;;;;;4920235;29;20071;-84
2022/08/25 00:18:07;;;;;;;0.50;0.50;;;21.60;99.90;;;;;;4920234;29;20047;-84
2022/08/25 00:20:33;;;;;;;0.65;0.65;;;21.60;99.90;;;;;;4919151;29;20060;-83
2022/08/25 00:22:58;;;;;;;0.60;0.60;;;21.50;99.90;;;;;;4910536;29;20071;-84
2022/08/25 00:25:25;;;;;;;0.40;0.40;;;21.50;99.90;;;;;;4919211;29;20042;-84
2022/08/25 00:27:51;;;;;;;0.40;0.40;;;21.40;99.90;;;;;;4919673;29;20062;-84
2022/08/25 00:30:18;;;;;;;0.30;0.30;;;21.30;99.90;;;;;;4920819;29;20044;-83
2022/08/25 00:32:44;;;;;;;;;;;21.20;99.90;;;;;;4909316;29;20044;-83
2022/08/25 00:35:09;;;;;;;0.35;0.32;;;21.20;99.90;;;;;;4919427;29;19930;-83
2022/08/25 00:37:36;;;;;;;0.63;0.63;;;21.10;99.90;;;;;;4920358;29;20052;-84
2022/08/25 00:40:02;;;;;;;;;;;21.00;99.90;;;;;;4923187;29;20110;-84
2022/08/25 00:42:28;;;;;;;0.38;0.38;;;21.00;99.90;;;;;;4914401;29;19923;-83
2022/08/25 00:44:53;;;;;;;0.70;0.70;;;20.90;99.90;;;;;;4908953;29;20071;-83
2022/08/25 00:47:19;;;;;;;0.30;0.30;;;20.80;99.90;;;;;;4915222;29;20055;-83
2022/08/25 00:49:53;;;;;;;0.47;0.47;;;20.80;99.90;;;;;;4932887;29;20083;-86
2022/08/25 00:52:34;;;;;;;0.60;0.60;;;20.70;99.90;;;;;;4910446;29;20169;-83
2022/08/25 00:55:02;;;;;;;0.75;0.43;;;20.60;99.90;;;;;;4919459;29;20075;-83
2022/08/25 00:57:44;;;;;;;0.30;0.30;;;20.60;99.90;;;;;;4906134;29;20055;-83
2022/08/25 01:00:34;;;;;;;0.70;0.60;;;20.60;99.90;;;;;;4908513;29;20131;-83
2022/08/25 01:03:00;;;;;;;0.80;0.80;;;20.50;99.90;;;;;;4915646;29;20048;-83
2022/08/25 01:05:28;;;;;;;0.60;0.40;;;20.50;99.90;;;;;;4916122;29;20123;-86
2022/08/25 01:07:55;;;;;;;0.60;0.60;;;20.40;99.90;;;;;;4915194;29;20048;-86
2022/08/25 01:10:23;;;;;;;0.63;0.63;;;20.40;99.90;;;;;;4918648;29;20083;-84
2022/08/25 01:12:49;;;;;;;0.40;0.40;;;20.40;99.90;;;;;;4916341;29;20048;-83
2022/08/25 01:15:16;;;;;;;0.20;0.20;;;20.40;99.90;;;;;;4915277;29;20087;-84
2022/08/25 01:17:51;;;;;;;0.40;0.40;;;20.40;99.90;;;;;;4905315;29;20040;-84
2022/08/25 01:20:19;;;;;;;0.30;0.30;;;20.40;99.90;;;;;;4921354;29;20056;-83
2022/08/25 01:22:46;;;;;;;0.40;0.40;;;20.50;99.90;;;;;;4916183;29;20063;-83
2022/08/25 01:25:28;;;;;;;0.30;0.30;;;20.50;99.90;;;;;;4917172;29;20055;-83
2022/08/25 01:27:54;;;;;;;0.73;0.50;;;20.50;99.90;;;;;;4905982;29;20138;-84
2022/08/25 01:30:20;;;;;;;;;;;20.50;99.90;;;;;;4903900;29;20127;-88
2022/08/25 01:32:46;;;;;;;0.20;0.20;;;20.50;99.90;;;;;;4930968;29;20425;-83
2022/08/25 01:35:12;;;;;;;0.22;0.22;;;20.60;99.90;;;;;;4916971;29;20091;-83
2022/08/25 01:37:39;;;;;;;0.38;0.30;;;20.70;99.90;;;;;;4904952;29;20087;-85
2022/08/25 01:40:05;;;;;;;0.20;0.20;;;20.60;99.90;;;;;;4913408;29;20040;-83
2022/08/25 01:42:54;;;;;;;0.65;0.40;;;20.70;99.90;;;;;;4906811;29;20080;-84
2022/08/25 01:45:20;;;;;;;0.68;0.32;;;20.70;99.90;;;;;;4923561;29;20036;-83
2022/08/25 01:47:46;;;;;;;0.50;0.50;;;20.70;99.90;;;;;;4910396;29;20044;-87
2022/08/25 01:50:12;;;;;;;1.17;0.50;;;20.70;99.90;;;;;;4916502;29;20380;-83
2022/08/25 01:52:45;;;;;;;0.60;0.60;;;20.70;99.90;;;;;;4909456;29;20044;-84
2022/08/25 01:55:11;;;;;;;0.70;0.50;;;20.70;99.90;;;;;;4901621;29;20059;-85
2022/08/25 01:57:37;;;;;;;0.35;0.30;;;20.60;99.90;;;;;;4916143;29;20048;-84
2022/08/25 02:00:09;;;;;;;0.40;0.40;;;20.60;99.90;;;;;;4914823;29;20128;-83
2022/08/25 02:02:35;;;;;;;0.35;0.30;;;20.70;99.90;;;;;;4924800;29;20065;-84
2022/08/25 02:05:01;;;;;;;0.28;0.28;;;20.70;99.90;;;;;;4899388;29;20048;-83
2022/08/25 02:07:26;;;;;;;0.43;0.40;;;20.60;99.90;;;;;;4916354;29;20044;-84
2022/08/25 02:09:52;;;;;;;0.40;0.40;;;20.60;99.90;;;;;;4903578;29;20076;-83
2022/08/25 02:12:18;;;;;;;0.30;0.30;;;20.60;99.90;;;;;;4913184;29;20502;-84
2022/08/25 02:14:44;;;;;;;0.43;0.30;;;20.70;99.90;;;;;;4914542;29;20108;-85
2022/08/25 02:17:10;;;;;;;;;;;20.60;99.90;;;;;;4913729;29;20054;-83
2022/08/25 02:19:36;;;;;;;0.40;0.32;;;20.60;99.90;;;;;;4916632;29;20310;-88
2022/08/25 02:22:02;;;;;;;0.30;0.30;;;20.60;99.90;;;;;;4915171;29;20048;-84
2022/08/25 02:24:28;;;;;;;;;;;20.60;99.90;;;;;;4911104;29;20149;-85
2022/08/25 02:26:54;;;;;;;0.65;0.40;;;20.60;99.90;;;;;;4895390;29;20005;-84
2022/08/25 02:29:20;;;;;;;0.50;0.47;;;20.50;99.90;;;;;;4898851;29;20402;-83
2022/08/25 02:31:45;;;;;;;0.47;0.45;;;20.50;99.90;;;;;;4902537;29;20051;-83
2022/08/25 02:34:14;;;;;;;0.68;0.40;;;20.50;99.90;;;;;;4906642;29;20057;-83
2022/08/25 02:36:40;;;;;;;0.20;0.20;;;20.50;99.90;;;;;;4914922;29;20229;-86
2022/08/25 02:39:07;;;;;;;0.45;0.32;;;20.50;99.90;;;;;;4906877;29;20498;-84
2022/08/25 02:41:33;;;;;;;0.52;0.40;;;20.40;99.90;;;;;;4916193;29;20047;-83
2022/08/25 02:44:00;;;;;;;0.38;0.30;;;20.40;99.90;;;;;;4909690;29;20603;-83
2022/08/25 02:46:26;;;;;;;0.40;0.30;;;20.40;99.90;;;;;;4912304;29;20056;-84
2022/08/25 02:48:52;;;;;;;0.28;0.28;;;20.40;99.90;;;;;;4915166;29;20048;-84
2022/08/25 02:51:20;;;;;;;0.63;0.55;;;20.40;99.90;;;;;;4925922;29;20123;-83
2022/08/25 02:53:46;;;;;;;0.30;0.30;;;20.40;99.90;;;;;;4901728;29;20083;-84
2022/08/25 02:56:15;;;;;;;0.45;0.45;;;20.30;99.90;;;;;;4915090;29;20056;-85
2022/08/25 02:58:41;;;;;;;0.55;0.50;;;20.30;99.90;;;;;;4904011;29;20321;-87
2022/08/25 03:01:10;;;;;;;0.57;0.30;;;20.30;99.90;;;;;;4904824;29;20054;-84
2022/08/25 03:03:39;;;;;;;0.40;0.30;;;20.30;99.90;;;;;;4905649;29;20086;-83
2022/08/25 03:06:07;;;;;;;0.20;0.20;;;20.30;99.90;;;;;;4912444;29;20112;-83
2022/08/25 03:08:33;;;;;;;0.88;0.30;;;20.30;99.90;;;;;;4905200;29;20078;-83
2022/08/25 03:10:59;;;;;;;;;;;20.20;99.90;;;;;;4916001;29;20059;-84
2022/08/25 03:13:24;;;;;;;0.20;0.20;;;20.20;99.90;;;;;;4912805;29;19931;-84
2022/08/25 03:15:51;;;;;;;0.43;0.40;;;20.20;99.90;;;;;;4914081;29;20098;-84
2022/08/25 03:18:16;;;;;;;0.45;0.45;;;20.20;99.90;;;;;;4915686;29;20044;-83
2022/08/25 03:20:43;;;;;;;0.55;0.40;;;20.20;99.90;;;;;;4917451;29;20055;-89
2022/08/25 03:23:09;;;;;;;0.55;0.47;;;20.10;99.90;;;;;;4913145;29;20056;-83
2022/08/25 03:28:19;;;;;;;0.38;0.38;;;20.10;99.90;;;;;;4914332;29;20059;-83
2022/08/25 03:30:45;;;;;;;2.53;0.30;;;20.10;99.90;;;;;;4900418;29;20130;-84
2022/08/25 03:33:11;;;;;;;0.30;0.30;;;20.10;99.90;;;;;;4908818;29;20108;-83
2022/08/25 03:35:37;;;;;;;0.30;0.30;;;20.10;99.90;;;;;;4915797;29;20046;-83
2022/08/25 03:38:04;;;;;;;0.43;0.30;;;20.00;99.90;;;;;;4889401;29;20055;-83
2022/08/25 03:40:29;;;;;;;0.30;0.30;;;20.00;99.90;;;;;;4897415;29;20471;-83
2022/08/25 03:42:55;;;;;;;0.30;0.30;;;20.00;99.90;;;;;;4898254;29;20177;-83
2022/08/25 03:45:22;;;;;;;0.22;0.22;;;20.00;99.90;;;;;;4905861;29;20126;-83
2022/08/25 03:47:49;;;;;;;0.40;0.40;;;19.90;99.90;;;;;;4916734;29;20080;-83
2022/08/25 03:50:16;;;;;;;0.32;0.15;;;19.90;99.90;;;;;;4913931;29;20052;-83
2022/08/25 03:52:42;;;;;;;0.28;0.28;;;19.90;99.90;;;;;;4909690;29;20064;-83
2022/08/25 03:55:10;;;;;;;0.22;0.20;;;19.90;99.90;;;;;;4914113;29;20067;-83
2022/08/25 03:57:36;;;;;;;0.20;0.20;;;19.80;99.90;;;;;;4915751;29;20398;-83
2022/08/25 04:00:07;;;;;;;0.52;0.20;;;19.80;99.90;;;;;;4902911;29;20184;-83
2022/08/25 04:02:33;;;;;;;0.63;0.30;;;19.80;99.90;;;;;;4901761;29;20051;-83
2022/08/25 04:04:59;;;;;;;0.32;0.32;;;19.80;99.90;;;;;;4908451;29;20052;-83
2022/08/25 04:07:25;;;;;;;0.52;0.30;;;19.80;99.90;;;;;;4915429;29;20400;-83
2022/08/25 04:09:53;;;;;;;0.60;0.47;;;19.80;99.90;;;;;;4902963;29;20044;-83
2022/08/25 04:12:19;;;;;;;0.30;0.30;;;19.80;99.90;;;;;;4925269;29;20087;-84
2022/08/25 04:14:45;;;;;;;0.43;0.43;;;19.70;99.90;;;;;;4898528;29;20123;-84
2022/08/25 04:17:10;;;;;;;0.40;0.40;;;19.70;99.90;;;;;;4914288;29;20140;-83
2022/08/25 04:19:37;;;;;;;0.60;0.43;;;19.60;99.90;;;;;;4914612;29;20055;-85
2022/08/25 04:22:03;;;;;;;0.38;0.38;;;19.60;99.90;;;;;;4919440;29;20064;-84
2022/08/25 04:24:28;;;;;;;0.38;0.22;;;19.60;99.90;;;;;;4916389;29;20526;-83
2022/08/25 04:26:57;;;;;;;0.63;0.30;;;19.60;99.90;;;;;;4917125;29;20107;-84
2022/08/25 04:29:27;;;;;;;1.10;0.40;;;19.60;99.90;;;;;;4910414;29;20127;-83
2022/08/25 04:31:54;;;;;;;0.28;0.28;;;19.50;99.90;;;;;;4885965;29;20066;-83
2022/08/25 04:34:22;;;;;;;0.45;0.30;;;19.50;99.90;;;;;;4918418;29;20044;-83
2022/08/25 04:36:51;;;;;;;0.32;0.32;;;19.60;99.90;;;;;;4922062;29;20457;-83
2022/08/25 04:39:19;;;;;;;0.77;0.32;;;19.50;99.90;;;;;;4923994;29;20059;-83
2022/08/25 04:41:49;;;;;;;0.47;0.47;;;19.50;99.90;;;;;;4915745;29;20439;-83
2022/08/25 04:44:15;;;;;;;0.10;0.10;;;19.50;99.90;;;;;;4916783;29;20131;-83
2022/08/25 04:46:40;;;;;;;0.47;0.40;;;19.50;99.90;;;;;;4918834;29;20476;-83
2022/08/25 04:49:06;;;;;;;0.80;0.45;;;19.50;99.90;;;;;;4915840;29;20131;-83
2022/08/25 04:51:38;;;;;;;0.55;0.28;;;19.50;99.90;;;;;;4917165;29;20094;-82
2022/08/25 04:54:10;;;;;;;0.68;0.40;;;19.50;99.90;;;;;;4918092;29;20099;-83
2022/08/25 04:56:38;;;;;;;0.30;0.20;;;19.50;99.90;;;;;;4918478;29;20399;-83
2022/08/25 04:59:08;;;;;;;1.17;0.47;;;19.50;99.90;;;;;;4918152;29;20056;-83
2022/08/25 05:01:34;;;;;;;0.52;0.40;;;19.40;99.90;;;;;;4921234;29;20044;-83
2022/08/25 05:04:03;;;;;;;0.43;0.20;;;19.40;99.90;;;;;;4899783;29;20510;-83
2022/08/25 05:06:29;;;;;;;0.20;0.20;;;19.40;99.90;;;;;;4918267;29;20044;-83
2022/08/25 05:08:56;;;;;;;0.10;0.10;;;19.40;99.90;;;;;;4908941;29;20052;-89
2022/08/25 05:11:24;;;;;;;0.28;0.22;;;19.50;99.90;;;;;;4915665;29;20052;-83
2022/08/25 05:13:52;;;;;;;0.47;0.30;;;19.50;99.90;;;;;;4928167;29;20044;-83
2022/08/25 05:16:19;;;;;;;0.30;0.20;;;19.40;99.90;;;;;;4917172;29;20546;-83
2022/08/25 05:18:45;;;;;;;0.28;0.20;;;19.40;99.90;;;;;;4918214;29;20164;-83
2022/08/25 05:21:18;;;;;;;0.30;0.30;;;19.40;99.90;;;;;;4917124;29;20493;-85
2022/08/25 05:23:45;;;;;;;1.25;0.50;;;19.40;99.90;;;;;;4930205;29;20048;-83
2022/08/25 05:26:19;;;;;;;0.30;0.30;;;19.40;99.90;;;;;;4918570;29;20044;-83
2022/08/25 05:28:47;;;;;;;0.40;0.30;;;19.40;99.90;;;;;;4905108;29;20134;-83
2022/08/25 05:31:14;;;;;;;0.38;0.30;;;19.50;99.90;;;;;;4916559;29;20079;-86
2022/08/25 05:33:40;;;;;;;0.40;0.40;;;19.50;99.90;;;;;;4931801;29;20502;-83
2022/08/25 05:36:08;;;;;;;0.47;0.28;;;19.50;99.90;;;;;;4916221;29;20044;-83
2022/08/25 05:38:34;;;;;;;0.30;0.30;;;19.50;99.90;;;;;;4928961;29;20048;-83
2022/08/25 05:41:12;;;;;;;1.05;0.70;;;19.60;99.90;;;;;;4900493;29;20443;-84
2022/08/25 05:43:39;;;;;;;0.60;0.50;;;19.60;99.90;;;;;;4917419;29;20048;-83
2022/08/25 05:46:06;;;;;;;0.20;0.20;;;19.60;99.90;;;;;;4916981;29;20507;-83
2022/08/25 05:48:31;;;;;;;;;;;19.70;99.90;;;;;;4917991;29;20052;-83
2022/08/25 05:51:00;;;;;;;0.17;0.17;;;19.80;99.90;;;;;;4932445;29;19929;-83
2022/08/25 05:53:27;;;;;;;0.13;0.13;;;19.90;99.90;;;;;;4909068;29;20139;-83
2022/08/25 05:55:55;;;;;;;0.40;0.20;;;20.10;99.90;;;;;;4917464;29;20119;-83
2022/08/25 05:58:22;;;;;;;0.38;0.30;;;20.30;99.90;;;;;;4915799;29;20048;-83
2022/08/25 06:00:48;;;;;;;0.82;0.30;;;20.50;99.90;;;;;;4916694;29;20059;-83
2022/08/25 06:03:14;;;;;;;2.83;1.23;;;20.60;99.90;;;;;;4907203;29;20132;-85
2022/08/25 06:05:40;;;;;;;0.52;0.52;;;20.80;99.90;;;;;;4908177;29;20119;-82
2022/08/25 06:08:06;;;;;;;0.43;0.30;;;20.90;99.90;;;;;;4913171;29;20083;-86
2022/08/25 06:10:32;;;;;;;0.73;0.40;;;21.00;99.90;;;;;;4907743;29;20099;-83
2022/08/25 06:12:58;;;;;;;0.40;0.38;;;21.10;99.90;;;;;;4900790;29;20150;-82
2022/08/25 06:15:24;;;;;;;0.30;0.30;;;21.30;99.90;;;;;;4916464;29;20036;-83
2022/08/25 06:17:50;;;;;;;0.20;0.20;;;21.40;99.90;;;;;;4900642;29;20139;-82
2022/08/25 06:20:22;;;;;;;0.50;0.50;;;21.50;99.90;;;;;;4900280;29;20052;-83
2022/08/25 06:22:49;;;;;;;0.28;0.20;;;21.60;99.90;;;;;;4900551;29;20364;-82
2022/08/25 06:25:17;;;;;;;0.73;0.40;;;21.70;99.90;;;;;;4916424;29;20119;-83
2022/08/25 06:27:44;;;;;;;0.65;0.25;;;21.80;99.90;;;;;;4899853;29;20502;-82
2022/08/25 06:30:14;;;;;;;0.40;0.40;;;21.90;99.90;;;;;;4898987;29;20075;-86
2022/08/25 06:32:42;;;;;;;0.30;0.30;;;21.90;99.90;;;;;;4915947;29;20376;-84
2022/08/25 06:35:10;;;;;;;0.57;0.30;;;22.00;99.90;;;;;;4916485;29;20079;-87
2022/08/25 06:37:37;;;;;;;0.22;0.20;;;22.10;99.90;;;;;;4917343;29;20040;-89
2022/08/25 06:40:05;;;;;;;0.28;0.28;;;22.20;99.90;;;;;;4898273;29;20436;-89
2022/08/25 06:42:31;;;;;;;0.50;0.30;;;22.80;99.90;;;;;;4892324;29;20506;-89
2022/08/25 06:44:56;;;;;;;0.73;0.40;;;22.30;99.90;;;;;;4915772;29;20048;-87
2022/08/25 06:47:22;;;;;;;0.32;0.32;;;22.40;99.90;;;;;;4900846;29;20118;-95
2022/08/25 06:49:48;;;;;;;0.47;0.35;;;22.40;99.90;;;;;;4900960;29;20069;-87
2022/08/25 06:52:14;;;;;;;0.22;0.22;;;22.40;99.90;;;;;;4886910;29;20687;-85
2022/08/25 06:54:40;;;;;;;;;;;22.60;99.90;;;;;;4907132;29;20060;-84
2022/08/25 06:57:06;;;;;;;0.20;0.20;;;22.70;99.90;;;;;;4896814;29;20361;-90
2022/08/25 06:59:33;;;;;;;0.57;0.50;;;22.70;99.90;;;;;;4903981;29;20147;-85
2022/08/25 07:02:00;;;;;;;0.32;0.32;;;22.80;99.90;;;;;;4912320;29;20047;-83
2022/08/25 07:04:26;;;;;;;0.30;0.20;;;22.90;99.90;;;;;;4913595;29;20458;-82
2022/08/25 07:06:51;;;;;;;0.60;0.43;;;23.10;99.90;;;;;;4913845;29;20056;-83
2022/08/25 07:09:17;;;;;;;0.70;0.20;;;23.20;99.90;;;;;;4914326;29;20062;-86
2022/08/25 07:11:44;;;;;;;0.20;0.20;;;23.40;99.90;;;;;;4893037;29;20483;-85
2022/08/25 07:14:11;;;;;;;0.60;0.60;;;23.40;99.90;;;;;;4904916;29;20040;-88
2022/08/25 07:16:39;;;;;;;0.38;0.30;;;23.50;99.90;;;;;;4911527;29;20095;-83
2022/08/25 07:19:05;;;;;;;0.52;0.38;;;23.50;99.90;;;;;;4906044;29;20134;-85
2022/08/25 07:21:33;;;;;;;0.40;0.40;;;23.60;99.90;;;;;;4916871;29;20213;-85
2022/08/25 07:24:00;;;;;;;1.48;0.73;;;23.80;99.90;;;;;;4915323;29;20471;-84
2022/08/25 07:26:30;;;;;;;0.50;0.50;;;23.80;99.90;;;;;;4911139;29;20479;-86
2022/08/25 07:28:57;;;;;;;0.32;0.32;;;23.90;99.90;;;;;;4917430;29;20051;-84
2022/08/25 07:31:23;;;;;;;0.35;0.35;;;24.00;99.90;;;;;;4878344;29;20403;-85
2022/08/25 07:36:33;;;;;;;0.57;0.57;;;23.90;99.90;;;;;;4914694;29;20092;-86
2022/08/25 07:39:04;;;;;;;0.93;0.68;;;24.00;99.90;;;;;;4897007;29;20052;-85
2022/08/25 07:41:31;;;;;;;0.70;0.50;;;24.20;99.90;;;;;;4897174;29;20051;-85
2022/08/25 07:43:57;;;;;;;0.50;0.50;;;24.30;99.90;;;;;;4915967;29;20052;-85
2022/08/25 07:46:23;;;;;;;0.73;0.50;;;24.30;99.90;;;;;;4909280;29;20048;-85
2022/08/25 07:48:48;;;;;;;0.88;0.47;;;24.40;99.90;;;;;;4915885;29;20052;-86
2022/08/25 07:51:14;;;;;;;0.40;0.40;;;24.40;99.90;;;;;;4906010;29;20407;-88
2022/08/25 07:53:41;;;;;;;0.30;0.30;;;24.50;99.90;;;;;;4894459;29;20463;-86
2022/08/25 07:56:13;;;;;;;0.40;0.28;;;24.70;99.90;;;;;;4896701;29;20072;-87
2022/08/25 07:58:40;;;;;;;0.45;0.40;;;24.70;99.90;;;;;;4915150;29;20557;-86
2022/08/25 08:01:12;;;;;;;0.80;0.40;;;24.80;99.90;;;;;;4900916;29;20072;-85
2022/08/25 08:03:38;;;;;;;0.43;0.43;;;25.00;99.90;;;;;;4919660;29;20052;-82
2022/08/25 08:06:09;;;;;;;0.30;0.30;;;25.00;99.90;;;;;;4919375;29;20380;-85
2022/08/25 08:08:37;;;;;;;0.40;0.40;;;25.10;99.90;;;;;;4897385;29;20048;-85
2022/08/25 08:11:03;;;;;;;0.40;0.40;;;25.20;99.90;;;;;;4922035;29;20163;-85
2022/08/25 08:13:29;;;;;;;0.40;0.40;;;25.30;99.90;;;;;;4900521;29;20127;-86
2022/08/25 08:15:54;;;;;;;0.25;0.25;;;25.40;99.90;;;;;;4908707;29;20513;-86
2022/08/25 08:18:21;;;;;;;;;;;25.50;99.90;;;;;;4910027;29;20047;-87
2022/08/25 08:20:48;;;;;;;0.33;0.33;;;25.70;99.40;;;;;;4903940;29;20014;-86
2022/08/25 08:23:15;;;;;;;0.40;0.40;;;25.80;99.80;;;;;;4903104;29;20044;-86
2022/08/25 08:25:41;;;;;;;0.60;0.52;;;26.00;99.50;;;;;;4918003;29;20063;-86
2022/08/25 08:28:07;;;;;;;0.52;0.52;;;26.00;99.40;;;;;;4918104;29;20106;-85
2022/08/25 08:30:35;;;;;;;;;;;26.00;99.40;;;;;;4903031;29;20067;-86
2022/08/25 08:33:00;;;;;;;0.28;0.28;;;26.10;97.70;;;;;;4926256;29;19930;-84
2022/08/25 08:35:26;;;;;;;;;;;26.10;98.90;;;;;;4921578;29;20048;-95
2022/08/25 08:37:52;;;;;;;0.50;0.30;;;26.20;97.30;;;;;;4916617;29;19943;-91
2022/08/25 08:40:18;;;;;;;;;;;26.20;99.00;;;;;;4902048;29;20478;-90
2022/08/25 08:42:56;;;;;;;0.40;0.40;;;26.30;97.20;;;;;;4909846;29;19981;-88
2022/08/25 08:45:25;;;;;;;0.30;0.30;;;26.30;98.20;;;;;;4910353;29;20537;-90
2022/08/25 08:48:09;;;;;;;0.22;0.22;;;26.50;99.20;;;;;;4906757;29;20394;-96
2022/08/25 08:50:37;;;;;;;0.30;0.22;;;26.60;97.30;;;;;;4889058;29;20401;-90
2022/08/25 08:53:12;;;;;;;0.32;0.32;;;26.70;98.60;;;;;;4903678;29;20139;-89
2022/08/25 08:55:42;;;;;;;0.28;0.28;;;26.90;97.80;;;;;;4900651;29;20104;-91
2022/08/25 08:58:18;;;;;;;0.20;0.20;;;27.00;98.10;;;;;;4906226;29;20055;-90
2022/08/25 09:00:53;;;;;;;0.38;0.30;;;27.10;96.40;;;;;;4921066;29;20180;-90
2022/08/25 09:03:39;;;;;;;0.52;0.40;;;27.10;97.10;;;;;;4935425;29;20047;-91
2022/08/25 09:06:10;;;;;;;0.22;0.22;;;27.10;94.50;;;;;;4900869;29;20036;-87
2022/08/25 09:08:39;;;;;;;0.30;0.20;;;27.20;96.30;;;;;;4914076;29;20107;-88
2022/08/25 09:11:55;;;;;;;0.40;0.20;;;27.20;96.40;;;;;;4903912;29;20048;-87
2022/08/25 09:14:39;;;;;;;0.10;0.10;;;27.20;93.10;;;;;;4888347;29;20056;-88
2022/08/25 09:17:15;;;;;;;0.10;0.10;;;27.30;94.80;;;;;;4901604;29;20060;-92
2022/08/25 09:20:03;;;;;;;0.30;0.30;;;27.30;94.80;;;;;;4903870;29;20108;-88
2022/08/25 09:22:59;;;;;;;0.10;0.10;;;27.30;94.70;;;;;;4901483;29;20128;-90
2022/08/25 09:25:56;;;;;;;0.10;0.10;;;27.30;94.40;;;;;;4870579;29;20052;-92
2022/08/25 09:28:37;;;;;;;0.32;0.22;;;27.40;92.20;;;;;;4932512;29;20052;-95
2022/08/25 09:31:31;;;;;;;0.13;0.13;;;26.60;92.40;;;;;;4917646;29;20052;-95
2022/08/25 09:34:00;;;;;;;0.22;0.13;;;27.60;91.60;;;;;;4896258;29;20503;-96
2022/08/25 09:36:29;;;;;;;0.38;0.38;;;26.90;92.20;;;;;;4892051;29;20044;-91
2022/08/25 09:38:55;;;;;;;0.30;0.30;;;27.70;92.80;;;;;;4890454;29;20040;-90
2022/08/25 09:41:48;;;;;;;;;;;27.80;92.60;;;;;;4888811;29;20048;-90
2022/08/25 09:44:20;;;;;;;0.15;0.13;;;27.90;85.80;;;;;;4880034;29;19923;-91
2022/08/25 09:47:00;;;;;;;0.15;0.15;;;28.00;90.40;;;;;;4921951;29;20074;-90
2022/08/25 09:49:44;;;;;;;0.65;0.32;;;28.10;89.80;;;;;;4903083;29;20375;-91
2022/08/25 09:52:31;;;;;;;0.28;0.20;;;28.10;88.40;;;;;;4883697;29;20060;-90
2022/08/25 09:55:30;;;;;;;0.20;0.20;;;28.20;90.30;;;;;;4917395;29;20075;-90
2022/08/25 09:57:57;;;;;;;0.10;0.10;;;28.40;86.50;;;;;;4879765;29;20060;-90
2022/08/25 10:00:29;;;;;;;0.65;0.32;;;28.50;90.40;;;;;;4886674;29;20044;-90
2022/08/25 10:03:12;;;;;;;0.25;0.25;;;28.60;89.40;;;;;;4897884;29;20048;-91
2022/08/25 10:06:15;;;;;;;0.20;0.20;;;28.80;87.30;;;;;;4902166;29;20036;-90
2022/08/25 10:08:43;;;;;;;0.55;0.38;;;28.80;83.70;;;;;;4915943;29;20063;-89
2022/08/25 10:11:14;;;;;;;0.20;0.20;;;28.90;84.40;;;;;;4915162;29;20054;-90
2022/08/25 10:13:50;;;;;;;0.40;0.40;;;28.80;85.40;;;;;;4910499;29;20062;-90
2022/08/25 10:16:24;;;;;;;;;;;29.00;84.40;;;;;;4906295;29;20073;-90
2022/08/25 10:19:24;;;;;;;0.10;0.10;;;28.80;81.10;;;;;;4906844;29;19923;-89
2022/08/25 10:22:22;;;;;;;0.45;0.30;;;28.90;81.20;;;;;;4901137;29;20146;-89
2022/08/25 10:24:48;;;;;;;0.20;0.20;;;29.00;80.20;;;;;;4914581;29;20040;-90
2022/08/25 10:27:24;;;;;;;0.20;0.20;;;29.00;83.80;;;;;;4909208;29;20044;-90
2022/08/25 10:30:30;;;;;;;0.20;0.20;;;29.20;81.20;;;;;;4907429;29;20202;-91
2022/08/25 10:33:19;;;;;;;0.38;0.28;;;29.30;80.30;;;;;;4909259;29;20771;-90
2022/08/25 10:36:33;;;;;;;0.30;0.30;;;29.40;79.90;;;;;;4911139;29;20063;-91
2022/08/25 10:39:11;;;;;;;0.13;0.13;;;29.40;79.00;;;;;;4898949;29;20179;-89
2022/08/25 10:42:06;;;;;;;0.52;0.45;;;29.40;80.10;;;;;;4877552;29;20111;-92
2022/08/25 10:48:14;;;;;;;0.25;0.25;;;29.40;77.20;;;;;;4820324;29;20575;-89
2022/08/25 10:50:55;;;;;;;0.40;0.40;;;29.50;76.70;;;;;;4887499;29;20060;-89
2022/08/25 10:53:45;;;;;;;0.30;0.30;;;29.50;79.30;;;;;;4902087;29;20064;-91
2022/08/25 10:56:25;;;;;;;0.17;0.17;;;29.60;76.20;;;;;;4927539;29;20641;-89
2022/08/25 10:59:18;;;;;;;0.65;0.65;;;29.60;76.50;;;;;;4911169;29;20052;-89
2022/08/25 11:02:05;;;;;;;0.20;0.20;;;29.70;76.00;;;;;;4897735;29;20104;-89
2022/08/25 11:05:05;;;;;;;0.20;0.20;;;29.80;76.20;;;;;;4905610;29;20402;-90
2022/08/25 11:07:36;;;;;;;0.52;0.50;;;30.30;75.80;;;;;;4909768;29;20210;-92
2022/08/25 11:10:26;;;;;;;0.30;0.30;;;30.00;75.80;;;;;;4900249;29;20107;-90
2022/08/25 11:12:56;;;;;;;0.30;0.20;;;30.00;74.90;;;;;;4906356;29;20074;-95
2022/08/25 11:15:35;;;;;;;0.30;0.30;;;30.80;76.30;;;;;;4905940;29;20044;-90
2022/08/25 11:18:09;;;;;;;0.52;0.43;;;30.10;76.00;;;;;;4906120;29;20113;-89
2022/08/25 11:20:47;;;;;;;0.40;0.40;;;30.10;74.40;;;;;;4906562;29;20044;-86
2022/08/25 11:23:24;;;;;;;0.30;0.30;;;30.10;73.50;;;;;;4900616;29;20048;-87
2022/08/25 11:25:53;;;;;;;0.10;0.10;;;30.20;74.10;;;;;;4913106;29;20040;-89
2022/08/25 11:28:40;;;;;;;0.30;0.30;;;30.30;74.20;;;;;;4918519;29;20044;-89
2022/08/25 11:31:07;;;;;;;0.00;0.00;;;30.50;74.40;;;;;;4918045;29;20047;-89
2022/08/25 11:33:33;;;;;;;0.22;0.22;;;30.60;74.60;;;;;;4902704;29;20044;-88
2022/08/25 11:36:04;;;;;;;0.50;0.30;;;30.70;74.20;;;;;;4901699;29;20056;-89
2022/08/25 11:38:51;;;;;;;0.20;0.20;;;30.70;74.20;;;;;;4935420;29;20435;-88
2022/08/25 11:41:46;;;;;;;0.38;0.30;;;30.80;71.70;;;;;;4918206;29;20047;-89
2022/08/25 11:44:37;;;;;;;0.50;0.40;;;30.80;68.80;;;;;;4852551;29;20491;-88
2022/08/25 11:47:44;;;;;;;0.22;0.22;;;30.80;69.80;;;;;;4886879;29;20088;-88
2022/08/25 11:50:31;;;;;;;0.30;0.30;;;30.80;69.20;;;;;;4875939;29;20060;-90
2022/08/25 11:53:18;;;;;;;;;;;30.80;68.40;;;;;;4930517;29;20064;-89
2022/08/25 11:55:51;;;;;;;0.50;0.22;;;30.80;66.70;;;;;;4914808;29;19966;-89
2022/08/25 11:58:39;;;;;;;0.30;0.20;;;30.80;70.20;;;;;;4899036;29;20136;-89
2022/08/25 12:01:27;;;;;;;0.20;0.20;;;30.90;70.50;;;;;;4899035;29;20698;-89
2022/08/25 12:04:27;;;;;;;0.30;0.30;;;31.00;70.90;;;;;;4898894;29;20112;-89
2022/08/25 12:07:05;;;;;;;0.20;0.20;;;31.00;69.60;;;;;;4930262;29;20501;-89
2022/08/25 12:09:49;;;;;;;0.50;0.30;;;31.10;68.90;;;;;;4930650;29;20063;-88
2022/08/25 12:12:35;;;;;;;0.30;0.30;;;31.10;69.10;;;;;;4930279;29;20123;-89
2022/08/25 12:15:25;;;;;;;0.30;0.20;;;31.20;68.40;;;;;;4898684;29;20048;-88
2022/08/25 12:18:14;;;;;;;0.47;0.35;;;31.40;68.20;;;;;;4930388;29;20055;-89
2022/08/25 12:20:52;;;;;;;0.20;0.20;;;31.60;67.80;;;;;;4899176;29;20059;-88
2022/08/25 12:23:30;;;;;;;0.50;0.50;;;31.60;68.00;;;;;;4899429;29;20364;-88
2022/08/25 12:26:01;;;;;;;0.68;0.40;;;31.70;67.40;;;;;;4930102;29;20044;-89
2022/08/25 12:29:03;;;;;;;0.25;0.25;;;31.70;68.40;;;;;;4899266;29;20139;-89
2022/08/25 12:31:32;;;;;;;0.22;0.22;;;31.70;66.70;;;;;;4899058;29;20565;-89
2022/08/25 12:34:21;;;;;;;0.20;0.20;;;31.70;68.70;;;;;;4930358;29;20052;-89
2022/08/25 12:37:04;;;;;;;0.22;0.22;;;31.70;67.80;;;;;;4888957;29;20063;-89
2022/08/25 12:39:34;;;;;;;0.30;0.30;;;31.70;64.70;;;;;;4899042;29;20096;-88
2022/08/25 12:42:06;;;;;;;0.88;0.30;;;31.80;67.10;;;;;;4898534;29;20107;-88
2022/08/25 12:44:38;;;;;;;0.65;0.30;;;31.90;66.10;;;;;;4899048;29;20048;-88
2022/08/25 12:47:12;;;;;;;0.38;0.38;;;32.00;66.90;;;;;;4899261;29;20052;-89
2022/08/25 12:49:38;;;;;;;0.20;0.20;;;31.90;65.40;;;;;;4902521;29;20509;-89
2022/08/25 12:52:20;;;;;;;0.30;0.30;;;31.90;66.70;;;;;;4883005;29;20048;-89
2022/08/25 12:54:53;;;;;;;0.20;0.20;;;32.00;64.60;;;;;;4899994;29;20052;-89
2022/08/25 12:57:37;;;;;;;0.90;0.30;;;31.80;64.30;;;;;;4900622;29;20135;-89
2022/08/25 13:00:21;;;;;;;0.22;0.22;;;32.10;62.80;;;;;;4899523;29;20107;-89
2022/08/25 13:02:55;;;;;;;0.30;0.10;;;32.10;60.60;;;;;;4914688;29;20053;-89
2022/08/25 13:05:36;;;;;;;0.40;0.40;;;32.10;65.40;;;;;;4898763;29;20049;-89
2022/08/25 13:08:19;;;;;;;0.13;0.13;;;32.10;62.50;;;;;;4914382;29;20093;-89
2022/08/25 13:11:00;;;;;;;0.30;0.30;;;32.20;62.30;;;;;;4912537;29;20619;-89
2022/08/25 13:13:41;;;;;;;0.20;0.20;;;32.30;63.10;;;;;;4899041;29;20219;-89
2022/08/25 13:16:14;;;;;;;0.45;0.30;;;32.50;63.70;;;;;;4914223;29;20143;-88
2022/08/25 13:18:40;;;;;;;0.40;0.20;;;32.60;62.00;;;;;;4899086;29;20059;-89
2022/08/25 13:21:29;;;;;;;0.25;0.25;;;32.70;63.80;;;;;;4899256;29;20402;-88
2022/08/25 13:23:58;;;;;;;0.30;0.30;;;32.60;61.50;;;;;;4898180;29;20459;-93